sensor_id;sensor_type;location;lat;lon;timestamp;P1;durP1;ratioP1;P2;durP2;ratioP2
10872;SDS011;34586;53.616;10.032;2022-09-13T00:00:03;3.37;;;3.07;;
10872;SDS011;34586;53.616;10.032;2022-09-13T00:02:30;3.07;;;2.77;;
10872;SDS011;34586;53.616;10.032;2022-09-13T00:04:56;3.40;;;3.10;;
10872;SDS011;34586;53.616;10.032;2022-09-13T00:07:22;3.97;;;3.23;;
10872;SDS011;34586;53.616;10.032;2022-09-13T00:09:48;3.60;;;2.93;;
10872;SDS011;34586;53.616;10.032;2022-09-13T00:12:13;3.40;;;3.10;;
10872;SDS011;34586;53.616;10.032;2022-09-13T00:14:39;3.77;;;3.27;;
10872;SDS011;34586;53.616;10.032;2022-09-13T00:17:05;3.17;;;2.97;;
10872;SDS011;34586;53.616;10.032;2022-09-13T00:19:30;2.93;;;2.63;;
10872;SDS011;34586;53.616;10.032;2022-09-13T00:21:56;3.20;;;2.90;;
10872;SDS011;34586;53.616;10.032;2022-09-13T00:24:22;3.97;;;3.10;;
10872;SDS011;34586;53.616;10.032;2022-09-13T00:26:47;3.93;;;2.77;;
10872;SDS011;34586;53.616;10.032;2022-09-13T00:29:13;2.90;;;2.70;;
10872;SDS011;34586;53.616;10.032;2022-09-13T00:31:38;2.97;;;2.77;;
10872;SDS011;34586;53.616;10.032;2022-09-13T00:34:04;4.37;;;3.50;;
10872;SDS011;34586;53.616;10.032;2022-09-13T00:36:29;2.97;;;2.77;;
10872;SDS011;34586;53.616;10.032;2022-09-13T00:38:55;4.23;;;3.33;;
10872;SDS011;34586;53.616;10.032;2022-09-13T00:41:21;4.80;;;3.70;;
10872;SDS011;34586;53.616;10.032;2022-09-13T00:43:48;6.90;;;3.53;;
10872;SDS011;34586;53.616;10.032;2022-09-13T00:46:17;4.13;;;3.70;;
10872;SDS011;34586;53.616;10.032;2022-09-13T00:48:50;4.30;;;3.70;;
10872;SDS011;34586;53.616;10.032;2022-09-13T00:51:18;4.70;;;3.70;;
10872;SDS011;34586;53.616;10.032;2022-09-13T00:53:45;6.53;;;3.60;;
10872;SDS011;34586;53.616;10.032;2022-09-13T00:56:30;4.97;;;3.73;;
10872;SDS011;34586;53.616;10.032;2022-09-13T00:59:05;4.50;;;4.10;;
10872;SDS011;34586;53.616;10.032;2022-09-13T01:01:40;4.17;;;3.77;;
10872;SDS011;34586;53.616;10.032;2022-09-13T01:04:10;4.47;;;4.07;;
10872;SDS011;34586;53.616;10.032;2022-09-13T01:06:36;4.73;;;3.80;;
10872;SDS011;34586;53.616;10.032;2022-09-13T01:09:04;4.97;;;4.53;;
10872;SDS011;34586;53.616;10.032;2022-09-13T01:14:06;5.03;;;4.63;;
10872;SDS011;34586;53.616;10.032;2022-09-13T01:16:32;4.30;;;3.77;;
10872;SDS011;34586;53.616;10.032;2022-09-13T01:18:58;5.43;;;4.37;;
10872;SDS011;34586;53.616;10.032;2022-09-13T01:26:53;4.20;;;3.90;;
10872;SDS011;34586;53.616;10.032;2022-09-13T01:32:18;4.93;;;4.53;;
10872;SDS011;34586;53.616;10.032;2022-09-13T01:35:03;6.00;;;5.13;;
10872;SDS011;34586;53.616;10.032;2022-09-13T01:37:53;5.33;;;4.83;;
10872;SDS011;34586;53.616;10.032;2022-09-13T01:43:11;5.13;;;4.60;;
10872;SDS011;34586;53.616;10.032;2022-09-13T01:48:19;5.50;;;5.00;;
10872;SDS011;34586;53.616;10.032;2022-09-13T01:51:08;5.10;;;4.60;;
10872;SDS011;34586;53.616;10.032;2022-09-13T01:56:50;4.73;;;4.33;;
10872;SDS011;34586;53.616;10.032;2022-09-13T01:59:29;4.97;;;4.57;;
10872;SDS011;34586;53.616;10.032;2022-09-13T02:02:50;5.60;;;5.10;;
10872;SDS011;34586;53.616;10.032;2022-09-13T02:04:55;6.00;;;5.40;;
10872;SDS011;34586;53.616;10.032;2022-09-13T02:07:30;6.07;;;4.93;;
10872;SDS011;34586;53.616;10.032;2022-09-13T02:10:04;5.70;;;5.30;;
10872;SDS011;34586;53.616;10.032;2022-09-13T02:12:33;5.63;;;5.10;;
10872;SDS011;34586;53.616;10.032;2022-09-13T02:15:06;5.77;;;5.17;;
10872;SDS011;34586;53.616;10.032;2022-09-13T02:17:42;6.17;;;5.37;;
10872;SDS011;34586;53.616;10.032;2022-09-13T02:20:12;5.43;;;5.00;;
10872;SDS011;34586;53.616;10.032;2022-09-13T02:22:54;5.83;;;5.33;;
10872;SDS011;34586;53.616;10.032;2022-09-13T02:25:24;6.93;;;5.43;;
10872;SDS011;34586;53.616;10.032;2022-09-13T02:27:52;6.13;;;5.30;;
10872;SDS011;34586;53.616;10.032;2022-09-13T02:30:22;6.57;;;5.67;;
10872;SDS011;34586;53.616;10.032;2022-09-13T02:33:03;6.60;;;5.90;;
10872;SDS011;34586;53.616;10.032;2022-09-13T02:35:34;5.80;;;5.30;;
10872;SDS011;34586;53.616;10.032;2022-09-13T02:38:07;5.70;;;5.27;;
10872;SDS011;34586;53.616;10.032;2022-09-13T02:40:40;5.77;;;5.20;;
10872;SDS011;34586;53.616;10.032;2022-09-13T02:43:14;6.47;;;5.50;;
10872;SDS011;34586;53.616;10.032;2022-09-13T02:48:30;6.27;;;5.67;;
10872;SDS011;34586;53.616;10.032;2022-09-13T02:51:16;6.40;;;5.67;;
10872;SDS011;34586;53.616;10.032;2022-09-13T02:57:04;5.70;;;5.20;;
10872;SDS011;34586;53.616;10.032;2022-09-13T02:59:34;7.63;;;5.40;;
10872;SDS011;34586;53.616;10.032;2022-09-13T03:02:02;7.00;;;6.27;;
10872;SDS011;34586;53.616;10.032;2022-09-13T03:04:34;5.83;;;5.27;;
10872;SDS011;34586;53.616;10.032;2022-09-13T03:07:00;7.27;;;5.93;;
10872;SDS011;34586;53.616;10.032;2022-09-13T03:09:30;6.63;;;6.03;;
10872;SDS011;34586;53.616;10.032;2022-09-13T03:14:49;6.80;;;6.10;;
10872;SDS011;34586;53.616;10.032;2022-09-13T03:20:43;6.70;;;6.10;;
10872;SDS011;34586;53.616;10.032;2022-09-13T03:34:30;9.10;;;6.60;;
10872;SDS011;34586;53.616;10.032;2022-09-13T03:37:17;7.87;;;7.07;;
10872;SDS011;34586;53.616;10.032;2022-09-13T03:39:53;8.77;;;7.87;;
10872;SDS011;34586;53.616;10.032;2022-09-13T03:42:27;9.03;;;7.47;;
10872;SDS011;34586;53.616;10.032;2022-09-13T03:45:06;12.03;;;9.30;;
10872;SDS011;34586;53.616;10.032;2022-09-13T03:47:33;9.80;;;8.80;;
10872;SDS011;34586;53.616;10.032;2022-09-13T03:50:03;11.20;;;8.53;;
10872;SDS011;34586;53.616;10.032;2022-09-13T03:52:31;10.10;;;8.97;;
10872;SDS011;34586;53.616;10.032;2022-09-13T03:54:57;11.27;;;8.30;;
10872;SDS011;34586;53.616;10.032;2022-09-13T03:57:23;10.40;;;9.27;;
10872;SDS011;34586;53.616;10.032;2022-09-13T03:59:50;10.63;;;9.50;;
10872;SDS011;34586;53.616;10.032;2022-09-13T04:02:17;10.73;;;9.60;;
10872;SDS011;34586;53.616;10.032;2022-09-13T04:04:44;11.73;;;8.70;;
10872;SDS011;34586;53.616;10.032;2022-09-13T04:07:18;11.37;;;10.20;;
10872;SDS011;34586;53.616;10.032;2022-09-13T04:09:45;10.17;;;9.20;;
10872;SDS011;34586;53.616;10.032;2022-09-13T04:12:12;12.37;;;10.63;;
10872;SDS011;34586;53.616;10.032;2022-09-13T04:14:39;13.57;;;10.57;;
10872;SDS011;34586;53.616;10.032;2022-09-13T04:17:05;11.10;;;9.90;;
10872;SDS011;34586;53.616;10.032;2022-09-13T04:19:31;12.03;;;10.60;;
10872;SDS011;34586;53.616;10.032;2022-09-13T04:21:57;12.23;;;10.93;;
10872;SDS011;34586;53.616;10.032;2022-09-13T04:24:26;13.13;;;10.97;;
10872;SDS011;34586;53.616;10.032;2022-09-13T04:26:53;12.30;;;10.47;;
10872;SDS011;34586;53.616;10.032;2022-09-13T04:29:20;14.23;;;12.60;;
10872;SDS011;34586;53.616;10.032;2022-09-13T04:31:47;13.57;;;11.27;;
10872;SDS011;34586;53.616;10.032;2022-09-13T04:34:14;14.80;;;13.17;;
10872;SDS011;34586;53.616;10.032;2022-09-13T04:36:42;14.53;;;13.03;;
10872;SDS011;34586;53.616;10.032;2022-09-13T04:39:08;16.20;;;14.13;;
10872;SDS011;34586;53.616;10.032;2022-09-13T04:41:34;18.97;;;14.77;;
10872;SDS011;34586;53.616;10.032;2022-09-13T04:44:00;18.13;;;16.13;;
10872;SDS011;34586;53.616;10.032;2022-09-13T04:46:26;19.83;;;16.30;;
10872;SDS011;34586;53.616;10.032;2022-09-13T04:48:53;21.33;;;17.17;;
10872;SDS011;34586;53.616;10.032;2022-09-13T04:51:19;20.13;;;17.33;;
10872;SDS011;34586;53.616;10.032;2022-09-13T04:53:46;20.97;;;17.27;;
10872;SDS011;34586;53.616;10.032;2022-09-13T04:56:16;20.33;;;17.00;;
10872;SDS011;34586;53.616;10.032;2022-09-13T04:58:43;21.33;;;17.97;;
10872;SDS011;34586;53.616;10.032;2022-09-13T05:01:09;21.10;;;17.63;;
10872;SDS011;34586;53.616;10.032;2022-09-13T05:03:35;22.50;;;18.40;;
10872;SDS011;34586;53.616;10.032;2022-09-13T05:06:02;21.60;;;18.63;;
10872;SDS011;34586;53.616;10.032;2022-09-13T05:08:39;19.10;;;16.73;;
10872;SDS011;34586;53.616;10.032;2022-09-13T05:11:05;21.50;;;18.23;;
10872;SDS011;34586;53.616;10.032;2022-09-13T05:13:31;21.97;;;18.77;;
10872;SDS011;34586;53.616;10.032;2022-09-13T05:16:02;22.93;;;18.17;;
10872;SDS011;34586;53.616;10.032;2022-09-13T05:18:30;28.33;;;19.23;;
10872;SDS011;34586;53.616;10.032;2022-09-13T05:20:58;22.03;;;17.40;;
10872;SDS011;34586;53.616;10.032;2022-09-13T05:23:25;21.67;;;18.20;;
10872;SDS011;34586;53.616;10.032;2022-09-13T05:26:01;23.80;;;20.07;;
10872;SDS011;34586;53.616;10.032;2022-09-13T05:28:30;24.47;;;20.47;;
10872;SDS011;34586;53.616;10.032;2022-09-13T05:30:59;21.23;;;18.93;;
10872;SDS011;34586;53.616;10.032;2022-09-13T05:33:28;24.67;;;20.20;;
10872;SDS011;34586;53.616;10.032;2022-09-13T05:35:55;22.37;;;18.30;;
10872;SDS011;34586;53.616;10.032;2022-09-13T05:38:21;22.40;;;18.90;;
10872;SDS011;34586;53.616;10.032;2022-09-13T05:40:47;20.00;;;17.13;;
10872;SDS011;34586;53.616;10.032;2022-09-13T05:43:13;22.03;;;19.33;;
10872;SDS011;34586;53.616;10.032;2022-09-13T05:45:39;23.13;;;20.17;;
10872;SDS011;34586;53.616;10.032;2022-09-13T05:48:05;22.00;;;18.57;;
10872;SDS011;34586;53.616;10.032;2022-09-13T05:50:30;21.30;;;17.73;;
10872;SDS011;34586;53.616;10.032;2022-09-13T05:52:56;22.60;;;19.30;;
10872;SDS011;34586;53.616;10.032;2022-09-13T05:55:22;20.53;;;17.40;;
10872;SDS011;34586;53.616;10.032;2022-09-13T05:57:48;21.10;;;18.37;;
10872;SDS011;34586;53.616;10.032;2022-09-13T06:00:14;19.73;;;17.27;;
10872;SDS011;34586;53.616;10.032;2022-09-13T06:02:40;22.20;;;18.77;;
10872;SDS011;34586;53.616;10.032;2022-09-13T06:05:07;19.73;;;17.20;;
10872;SDS011;34586;53.616;10.032;2022-09-13T06:07:34;18.87;;;16.87;;
10872;SDS011;34586;53.616;10.032;2022-09-13T06:10:00;20.07;;;16.80;;
10872;SDS011;34586;53.616;10.032;2022-09-13T06:12:28;21.17;;;16.63;;
10872;SDS011;34586;53.616;10.032;2022-09-13T06:14:54;18.67;;;16.67;;
10872;SDS011;34586;53.616;10.032;2022-09-13T06:17:19;22.07;;;18.67;;
10872;SDS011;34586;53.616;10.032;2022-09-13T06:19:45;21.77;;;18.07;;
10872;SDS011;34586;53.616;10.032;2022-09-13T06:22:10;18.63;;;16.60;;
10872;SDS011;34586;53.616;10.032;2022-09-13T06:24:36;22.47;;;17.53;;
10872;SDS011;34586;53.616;10.032;2022-09-13T06:27:02;18.63;;;16.50;;
10872;SDS011;34586;53.616;10.032;2022-09-13T06:29:28;17.97;;;14.77;;
10872;SDS011;34586;53.616;10.032;2022-09-13T06:31:53;20.67;;;16.23;;
10872;SDS011;34586;53.616;10.032;2022-09-13T06:34:19;21.37;;;16.73;;
10872;SDS011;34586;53.616;10.032;2022-09-13T06:36:44;23.73;;;17.33;;
10872;SDS011;34586;53.616;10.032;2022-09-13T06:39:10;17.23;;;15.43;;
10872;SDS011;34586;53.616;10.032;2022-09-13T06:41:36;17.60;;;14.33;;
10872;SDS011;34586;53.616;10.032;2022-09-13T06:44:02;22.80;;;16.60;;
10872;SDS011;34586;53.616;10.032;2022-09-13T06:46:28;18.50;;;13.97;;
10872;SDS011;34586;53.616;10.032;2022-09-13T06:48:58;17.23;;;14.17;;
10872;SDS011;34586;53.616;10.032;2022-09-13T06:51:32;18.00;;;14.13;;
10872;SDS011;34586;53.616;10.032;2022-09-13T06:53:58;15.63;;;13.00;;
10872;SDS011;34586;53.616;10.032;2022-09-13T06:56:26;15.20;;;12.53;;
10872;SDS011;34586;53.616;10.032;2022-09-13T06:58:54;15.20;;;11.77;;
10872;SDS011;34586;53.616;10.032;2022-09-13T07:01:22;13.77;;;11.43;;
10872;SDS011;34586;53.616;10.032;2022-09-13T07:03:51;12.47;;;10.37;;
10872;SDS011;34586;53.616;10.032;2022-09-13T07:06:22;14.70;;;10.47;;
10872;SDS011;34586;53.616;10.032;2022-09-13T07:08:49;14.33;;;11.23;;
10872;SDS011;34586;53.616;10.032;2022-09-13T07:11:16;12.93;;;10.40;;
10872;SDS011;34586;53.616;10.032;2022-09-13T07:13:50;12.40;;;9.27;;
10872;SDS011;34586;53.616;10.032;2022-09-13T07:16:17;12.67;;;8.67;;
10872;SDS011;34586;53.616;10.032;2022-09-13T07:18:44;11.43;;;9.47;;
10872;SDS011;34586;53.616;10.032;2022-09-13T07:21:10;11.13;;;8.67;;
10872;SDS011;34586;53.616;10.032;2022-09-13T07:23:37;11.90;;;8.37;;
10872;SDS011;34586;53.616;10.032;2022-09-13T07:26:04;11.73;;;8.63;;
10872;SDS011;34586;53.616;10.032;2022-09-13T07:28:34;10.63;;;8.40;;
10872;SDS011;34586;53.616;10.032;2022-09-13T07:33:35;13.50;;;8.93;;
10872;SDS011;34586;53.616;10.032;2022-09-13T07:36:01;9.27;;;7.10;;
10872;SDS011;34586;53.616;10.032;2022-09-13T07:38:30;9.80;;;7.37;;
10872;SDS011;34586;53.616;10.032;2022-09-13T07:40:59;11.13;;;6.77;;
10872;SDS011;34586;53.616;10.032;2022-09-13T07:43:25;11.97;;;7.43;;
10872;SDS011;34586;53.616;10.032;2022-09-13T07:45:56;10.03;;;6.83;;
10872;SDS011;34586;53.616;10.032;2022-09-13T07:48:26;10.73;;;6.30;;
10872;SDS011;34586;53.616;10.032;2022-09-13T07:51:03;8.37;;;6.30;;
10872;SDS011;34586;53.616;10.032;2022-09-13T07:53:34;7.33;;;5.43;;
10872;SDS011;34586;53.616;10.032;2022-09-13T07:58:40;6.37;;;4.83;;
10872;SDS011;34586;53.616;10.032;2022-09-13T08:01:11;9.57;;;6.13;;
10872;SDS011;34586;53.616;10.032;2022-09-13T08:03:39;6.07;;;4.40;;
10872;SDS011;34586;53.616;10.032;2022-09-13T08:06:06;6.30;;;4.20;;
10872;SDS011;34586;53.616;10.032;2022-09-13T08:08:32;8.70;;;4.40;;
10872;SDS011;34586;53.616;10.032;2022-09-13T08:10:59;8.63;;;4.27;;
10872;SDS011;34586;53.616;10.032;2022-09-13T08:13:26;8.57;;;3.97;;
10872;SDS011;34586;53.616;10.032;2022-09-13T08:15:53;5.87;;;3.47;;
10872;SDS011;34586;53.616;10.032;2022-09-13T08:18:19;7.70;;;3.97;;
10872;SDS011;34586;53.616;10.032;2022-09-13T08:20:45;7.53;;;3.33;;
10872;SDS011;34586;53.616;10.032;2022-09-13T08:23:11;5.73;;;2.60;;
10872;SDS011;34586;53.616;10.032;2022-09-13T08:25:38;6.33;;;2.23;;
10872;SDS011;34586;53.616;10.032;2022-09-13T08:28:05;9.17;;;2.80;;
10872;SDS011;34586;53.616;10.032;2022-09-13T08:30:35;5.43;;;1.97;;
10872;SDS011;34586;53.616;10.032;2022-09-13T08:33:02;6.50;;;1.60;;
10872;SDS011;34586;53.616;10.032;2022-09-13T08:35:28;7.17;;;1.53;;
10872;SDS011;34586;53.616;10.032;2022-09-13T08:37:54;6.47;;;1.40;;
10872;SDS011;34586;53.616;10.032;2022-09-13T08:40:21;4.90;;;1.43;;
10872;SDS011;34586;53.616;10.032;2022-09-13T08:43:00;7.07;;;1.77;;
10872;SDS011;34586;53.616;10.032;2022-09-13T08:45:41;6.43;;;1.60;;
10872;SDS011;34586;53.616;10.032;2022-09-13T08:48:13;5.53;;;1.33;;
10872;SDS011;34586;53.616;10.032;2022-09-13T08:50:42;4.37;;;1.13;;
10872;SDS011;34586;53.616;10.032;2022-09-13T08:53:23;7.07;;;1.30;;
10872;SDS011;34586;53.616;10.032;2022-09-13T08:58:38;6.77;;;1.70;;
10872;SDS011;34586;53.616;10.032;2022-09-13T09:04:09;5.10;;;1.30;;
10872;SDS011;34586;53.616;10.032;2022-09-13T09:06:54;5.20;;;1.00;;
10872;SDS011;34586;53.616;10.032;2022-09-13T09:09:30;8.23;;;1.13;;
10872;SDS011;34586;53.616;10.032;2022-09-13T09:12:02;2.17;;;0.67;;
10872;SDS011;34586;53.616;10.032;2022-09-13T09:14:59;5.37;;;0.90;;
10872;SDS011;34586;53.616;10.032;2022-09-13T09:17:33;4.20;;;1.07;;
10872;SDS011;34586;53.616;10.032;2022-09-13T09:22:51;5.67;;;0.83;;
10872;SDS011;34586;53.616;10.032;2022-09-13T09:25:19;4.53;;;0.90;;
10872;SDS011;34586;53.616;10.032;2022-09-13T09:27:47;4.37;;;0.80;;
10872;SDS011;34586;53.616;10.032;2022-09-13T09:30:14;7.20;;;1.23;;
10872;SDS011;34586;53.616;10.032;2022-09-13T09:32:45;4.47;;;0.93;;
10872;SDS011;34586;53.616;10.032;2022-09-13T09:35:43;5.10;;;0.83;;
10872;SDS011;34586;53.616;10.032;2022-09-13T09:40:58;5.10;;;0.90;;
10872;SDS011;34586;53.616;10.032;2022-09-13T09:43:29;4.13;;;1.00;;
10872;SDS011;34586;53.616;10.032;2022-09-13T09:45:59;3.50;;;1.03;;
10872;SDS011;34586;53.616;10.032;2022-09-13T09:48:28;5.27;;;1.00;;
10872;SDS011;34586;53.616;10.032;2022-09-13T09:51:01;4.73;;;0.70;;
10872;SDS011;34586;53.616;10.032;2022-09-13T09:53:32;4.50;;;0.87;;
10872;SDS011;34586;53.616;10.032;2022-09-13T09:58:46;5.17;;;0.83;;
10872;SDS011;34586;53.616;10.032;2022-09-13T10:01:17;3.83;;;0.80;;
10872;SDS011;34586;53.616;10.032;2022-09-13T10:03:57;5.80;;;1.00;;
10872;SDS011;34586;53.616;10.032;2022-09-13T10:06:36;4.70;;;0.80;;
10872;SDS011;34586;53.616;10.032;2022-09-13T10:09:04;4.60;;;0.70;;
10872;SDS011;34586;53.616;10.032;2022-09-13T10:11:44;6.03;;;1.10;;
10872;SDS011;34586;53.616;10.032;2022-09-13T10:17:02;4.77;;;1.07;;
10872;SDS011;34586;53.616;10.032;2022-09-13T10:19:29;5.83;;;0.80;;
10872;SDS011;34586;53.616;10.032;2022-09-13T10:22:10;2.87;;;0.70;;
10872;SDS011;34586;53.616;10.032;2022-09-13T10:24:37;5.27;;;0.97;;
10872;SDS011;34586;53.616;10.032;2022-09-13T10:27:03;7.97;;;1.27;;
10872;SDS011;34586;53.616;10.032;2022-09-13T10:29:45;5.03;;;0.90;;
10872;SDS011;34586;53.616;10.032;2022-09-13T10:32:12;5.13;;;0.93;;
10872;SDS011;34586;53.616;10.032;2022-09-13T10:34:40;5.23;;;1.13;;
10872;SDS011;34586;53.616;10.032;2022-09-13T10:37:13;3.53;;;0.90;;
10872;SDS011;34586;53.616;10.032;2022-09-13T10:39:54;6.17;;;0.93;;
10872;SDS011;34586;53.616;10.032;2022-09-13T10:42:32;4.30;;;0.97;;
10872;SDS011;34586;53.616;10.032;2022-09-13T10:47:25;5.80;;;1.03;;
10872;SDS011;34586;53.616;10.032;2022-09-13T10:49:55;6.23;;;1.03;;
10872;SDS011;34586;53.616;10.032;2022-09-13T10:52:30;4.77;;;1.17;;
10872;SDS011;34586;53.616;10.032;2022-09-13T10:57:43;7.73;;;1.63;;
10872;SDS011;34586;53.616;10.032;2022-09-13T11:00:14;6.47;;;1.30;;
10872;SDS011;34586;53.616;10.032;2022-09-13T11:08:31;6.67;;;1.30;;
10872;SDS011;34586;53.616;10.032;2022-09-13T11:11:07;6.67;;;1.00;;
10872;SDS011;34586;53.616;10.032;2022-09-13T11:14:17;2.23;;;0.80;;
10872;SDS011;34586;53.616;10.032;2022-09-13T11:22:12;4.53;;;1.10;;
10872;SDS011;34586;53.616;10.032;2022-09-13T11:27:39;4.67;;;0.87;;
10872;SDS011;34586;53.616;10.032;2022-09-13T11:30:18;5.27;;;1.00;;
10872;SDS011;34586;53.616;10.032;2022-09-13T11:35:41;4.60;;;1.00;;
10872;SDS011;34586;53.616;10.032;2022-09-13T11:38:30;4.70;;;1.00;;
10872;SDS011;34586;53.616;10.032;2022-09-13T11:41:31;3.40;;;0.70;;
10872;SDS011;34586;53.616;10.032;2022-09-13T11:44:34;4.53;;;0.80;;
10872;SDS011;34586;53.616;10.032;2022-09-13T11:52:52;5.10;;;1.20;;
10872;SDS011;34586;53.616;10.032;2022-09-13T11:55:49;3.77;;;1.10;;
10872;SDS011;34586;53.616;10.032;2022-09-13T11:58:20;5.83;;;1.10;;
10872;SDS011;34586;53.616;10.032;2022-09-13T12:00:52;6.20;;;0.90;;
10872;SDS011;34586;53.616;10.032;2022-09-13T12:06:18;4.50;;;0.83;;
10872;SDS011;34586;53.616;10.032;2022-09-13T12:08:51;6.87;;;1.13;;
10872;SDS011;34586;53.616;10.032;2022-09-13T12:11:28;4.00;;;0.90;;
10872;SDS011;34586;53.616;10.032;2022-09-13T12:14:02;4.73;;;0.93;;
10872;SDS011;34586;53.616;10.032;2022-09-13T12:16:31;7.77;;;0.90;;
10872;SDS011;34586;53.616;10.032;2022-09-13T12:19:00;3.80;;;0.80;;
10872;SDS011;34586;53.616;10.032;2022-09-13T12:21:34;6.93;;;1.07;;
10872;SDS011;34586;53.616;10.032;2022-09-13T12:24:18;3.50;;;0.90;;
10872;SDS011;34586;53.616;10.032;2022-09-13T12:26:52;6.07;;;0.93;;
10872;SDS011;34586;53.616;10.032;2022-09-13T12:29:23;3.83;;;0.90;;
10872;SDS011;34586;53.616;10.032;2022-09-13T12:31:58;3.40;;;0.80;;
10872;SDS011;34586;53.616;10.032;2022-09-13T12:34:28;6.23;;;0.90;;
10872;SDS011;34586;53.616;10.032;2022-09-13T12:37:17;7.33;;;1.27;;
10872;SDS011;34586;53.616;10.032;2022-09-13T12:46:16;5.40;;;1.07;;
10872;SDS011;34586;53.616;10.032;2022-09-13T12:51:33;4.50;;;0.97;;
10872;SDS011;34586;53.616;10.032;2022-09-13T12:59:49;4.60;;;1.10;;
10872;SDS011;34586;53.616;10.032;2022-09-13T13:02:44;5.33;;;1.00;;
10872;SDS011;34586;53.616;10.032;2022-09-13T13:05:26;10.47;;;1.17;;
10872;SDS011;34586;53.616;10.032;2022-09-13T13:07:56;3.77;;;0.90;;
10872;SDS011;34586;53.616;10.032;2022-09-13T13:10:31;3.77;;;0.80;;
10872;SDS011;34586;53.616;10.032;2022-09-13T13:13:12;4.50;;;0.97;;
10872;SDS011;34586;53.616;10.032;2022-09-13T13:18:20;2.67;;;1.00;;
10872;SDS011;34586;53.616;10.032;2022-09-13T13:33:47;5.07;;;1.10;;
10872;SDS011;34586;53.616;10.032;2022-09-13T13:36:23;6.57;;;1.10;;
10872;SDS011;34586;53.616;10.032;2022-09-13T13:38:56;4.83;;;0.90;;
10872;SDS011;34586;53.616;10.032;2022-09-13T13:44:09;4.50;;;0.90;;
10872;SDS011;34586;53.616;10.032;2022-09-13T13:46:47;4.87;;;0.93;;
10872;SDS011;34586;53.616;10.032;2022-09-13T13:55:07;8.83;;;1.23;;
10872;SDS011;34586;53.616;10.032;2022-09-13T14:00:50;5.03;;;1.37;;
10872;SDS011;34586;53.616;10.032;2022-09-13T14:03:40;3.87;;;1.30;;
10872;SDS011;34586;53.616;10.032;2022-09-13T14:09:02;5.63;;;0.90;;
10872;SDS011;34586;53.616;10.032;2022-09-13T14:14:54;5.83;;;1.10;;
10872;SDS011;34586;53.616;10.032;2022-09-13T14:17:45;7.87;;;1.13;;
10872;SDS011;34586;53.616;10.032;2022-09-13T14:20:28;3.90;;;0.83;;
10872;SDS011;34586;53.616;10.032;2022-09-13T14:25:42;6.17;;;1.10;;
10872;SDS011;34586;53.616;10.032;2022-09-13T14:28:11;6.00;;;1.10;;
10872;SDS011;34586;53.616;10.032;2022-09-13T14:30:41;5.63;;;1.10;;
10872;SDS011;34586;53.616;10.032;2022-09-13T14:33:17;8.03;;;1.20;;
10872;SDS011;34586;53.616;10.032;2022-09-13T14:35:55;6.87;;;1.13;;
10872;SDS011;34586;53.616;10.032;2022-09-13T14:38:24;6.57;;;1.20;;
10872;SDS011;34586;53.616;10.032;2022-09-13T14:40:57;8.43;;;1.03;;
10872;SDS011;34586;53.616;10.032;2022-09-13T14:43:35;7.27;;;1.20;;
10872;SDS011;34586;53.616;10.032;2022-09-13T14:46:06;6.07;;;1.23;;
10872;SDS011;34586;53.616;10.032;2022-09-13T14:48:47;11.70;;;1.40;;
10872;SDS011;34586;53.616;10.032;2022-09-13T14:51:19;6.07;;;1.10;;
10872;SDS011;34586;53.616;10.032;2022-09-13T14:53:49;6.33;;;1.40;;
10872;SDS011;34586;53.616;10.032;2022-09-13T14:56:40;5.13;;;1.20;;
10872;SDS011;34586;53.616;10.032;2022-09-13T14:59:12;7.77;;;1.20;;
10872;SDS011;34586;53.616;10.032;2022-09-13T15:02:05;7.37;;;0.97;;
10872;SDS011;34586;53.616;10.032;2022-09-13T15:04:40;5.90;;;1.13;;
10872;SDS011;34586;53.616;10.032;2022-09-13T15:07:21;7.10;;;1.30;;
10872;SDS011;34586;53.616;10.032;2022-09-13T15:10:41;6.43;;;1.20;;
10872;SDS011;34586;53.616;10.032;2022-09-13T15:15:23;5.30;;;1.10;;
10872;SDS011;34586;53.616;10.032;2022-09-13T15:18:02;5.43;;;1.10;;
10872;SDS011;34586;53.616;10.032;2022-09-13T15:20:29;6.53;;;1.17;;
10872;SDS011;34586;53.616;10.032;2022-09-13T15:25:52;7.07;;;1.30;;
10872;SDS011;34586;53.616;10.032;2022-09-13T15:28:27;7.80;;;1.50;;
10872;SDS011;34586;53.616;10.032;2022-09-13T15:30:56;8.63;;;2.00;;
10872;SDS011;34586;53.616;10.032;2022-09-13T15:33:25;7.30;;;1.30;;
10872;SDS011;34586;53.616;10.032;2022-09-13T15:36:11;5.93;;;1.30;;
10872;SDS011;34586;53.616;10.032;2022-09-13T15:41:36;6.33;;;1.20;;
10872;SDS011;34586;53.616;10.032;2022-09-13T15:44:04;5.97;;;1.27;;
10872;SDS011;34586;53.616;10.032;2022-09-13T15:46:31;4.93;;;1.20;;
10872;SDS011;34586;53.616;10.032;2022-09-13T15:49:08;9.00;;;1.40;;
10872;SDS011;34586;53.616;10.032;2022-09-13T15:51:41;5.13;;;1.03;;
10872;SDS011;34586;53.616;10.032;2022-09-13T15:54:11;6.63;;;0.90;;
10872;SDS011;34586;53.616;10.032;2022-09-13T15:56:41;6.43;;;1.10;;
10872;SDS011;34586;53.616;10.032;2022-09-13T15:59:13;9.00;;;1.30;;
10872;SDS011;34586;53.616;10.032;2022-09-13T16:01:40;5.60;;;1.00;;
10872;SDS011;34586;53.616;10.032;2022-09-13T16:04:06;5.50;;;1.03;;
10872;SDS011;34586;53.616;10.032;2022-09-13T16:06:32;3.97;;;1.10;;
10872;SDS011;34586;53.616;10.032;2022-09-13T16:08:58;5.50;;;0.90;;
10872;SDS011;34586;53.616;10.032;2022-09-13T16:11:24;6.00;;;0.80;;
10872;SDS011;34586;53.616;10.032;2022-09-13T16:13:50;4.67;;;0.70;;
10872;SDS011;34586;53.616;10.032;2022-09-13T16:16:16;7.33;;;1.10;;
10872;SDS011;34586;53.616;10.032;2022-09-13T16:18:41;4.60;;;1.27;;
10872;SDS011;34586;53.616;10.032;2022-09-13T16:21:07;5.43;;;1.00;;
10872;SDS011;34586;53.616;10.032;2022-09-13T16:23:32;5.50;;;1.00;;
10872;SDS011;34586;53.616;10.032;2022-09-13T16:25:58;2.83;;;0.77;;
10872;SDS011;34586;53.616;10.032;2022-09-13T16:28:24;2.73;;;0.70;;
10872;SDS011;34586;53.616;10.032;2022-09-13T16:30:50;3.13;;;0.50;;
10872;SDS011;34586;53.616;10.032;2022-09-13T16:33:16;4.43;;;1.00;;
10872;SDS011;34586;53.616;10.032;2022-09-13T16:35:43;2.70;;;0.80;;
10872;SDS011;34586;53.616;10.032;2022-09-13T16:38:09;3.63;;;0.80;;
10872;SDS011;34586;53.616;10.032;2022-09-13T16:40:37;2.67;;;0.87;;
10872;SDS011;34586;53.616;10.032;2022-09-13T16:43:04;4.50;;;0.77;;
10872;SDS011;34586;53.616;10.032;2022-09-13T16:45:29;8.07;;;1.00;;
10872;SDS011;34586;53.616;10.032;2022-09-13T16:47:55;2.87;;;0.57;;
10872;SDS011;34586;53.616;10.032;2022-09-13T16:50:20;6.43;;;0.70;;
10872;SDS011;34586;53.616;10.032;2022-09-13T16:52:46;6.90;;;1.10;;
10872;SDS011;34586;53.616;10.032;2022-09-13T16:55:11;3.73;;;0.90;;
10872;SDS011;34586;53.616;10.032;2022-09-13T16:57:37;2.93;;;0.70;;
10872;SDS011;34586;53.616;10.032;2022-09-13T17:00:04;4.57;;;0.93;;
10872;SDS011;34586;53.616;10.032;2022-09-13T17:02:34;3.80;;;0.70;;
10872;SDS011;34586;53.616;10.032;2022-09-13T17:04:59;3.93;;;0.87;;
10872;SDS011;34586;53.616;10.032;2022-09-13T17:07:25;3.30;;;0.70;;
10872;SDS011;34586;53.616;10.032;2022-09-13T17:09:51;5.37;;;1.00;;
10872;SDS011;34586;53.616;10.032;2022-09-13T17:12:17;6.10;;;1.00;;
10872;SDS011;34586;53.616;10.032;2022-09-13T17:14:43;4.50;;;0.77;;
10872;SDS011;34586;53.616;10.032;2022-09-13T17:17:11;4.47;;;0.93;;
10872;SDS011;34586;53.616;10.032;2022-09-13T17:19:38;4.17;;;0.80;;
10872;SDS011;34586;53.616;10.032;2022-09-13T17:22:04;5.37;;;1.07;;
10872;SDS011;34586;53.616;10.032;2022-09-13T17:24:32;4.70;;;1.07;;